Time;durP1;ratioP1;P1;durP2;ratioP2;P2;SDS_P1;SDS_P2;PMS_P1;PMS_P2;Temp;Humidity;BMP_temperature;BMP_pressure;BME280_temperature;BME280_humidity;BME280_pressure;Samples;Min_cycle;Max_cycle;Signal;HPM_P1;HPM_P2
2022/03/01 00:02:10;;;;;;;;;;;;;;;0.84;57.72;103078.28;15424856;28;20074;-61
2022/03/01 00:09:43;;;;;;;1999.90;999.90;;;;;;;0.72;58.81;103079.94;15398091;28;20364;-60
2022/03/01 00:17:15;;;;;;;1999.90;999.90;;;;;;;0.53;58.62;103052.25;15404452;28;20579;-62
2022/03/01 00:24:49;;;;;;;1999.90;999.90;;;;;;;0.81;58.37;103073.19;15414677;28;20049;-60
2022/03/01 00:32:22;;;;;;;1999.90;999.90;;;;;;;0.77;58.69;103080.19;15403914;28;20047;-61
2022/03/01 00:39:55;;;;;;;1999.90;999.90;;;;;;;0.50;59.42;103043.56;15402604;28;20039;-62
2022/03/01 00:47:27;;;;;;;1999.90;999.90;;;;;;;0.39;59.69;103038.69;15399079;28;20138;-61
2022/03/01 00:55:01;;;;;;;1999.90;999.90;;;;;;;0.50;59.28;103027.09;15397598;28;20121;-61
2022/03/01 01:02:33;;;;;;;1999.90;999.90;;;;;;;0.44;59.01;103038.94;15396208;28;20053;-61
2022/03/01 01:10:08;;;;;;;1999.90;999.90;;;;;;;0.55;59.25;103032.81;15407680;28;20097;-60
2022/03/01 01:17:40;;;;;;;1999.90;999.90;;;;;;;0.52;58.75;103030.47;15409702;28;20094;-61
2022/03/01 01:25:15;;;;;;;1999.90;999.90;;;;;;;0.39;59.34;103035.94;15379991;28;20047;-61
2022/03/01 01:32:49;;;;;;;1999.90;999.90;;;;;;;0.52;58.77;103031.34;15406691;28;20055;-61
2022/03/01 01:40:25;;;;;;;1999.90;999.90;;;;;;;0.61;58.51;103020.97;15368496;28;20583;-61
2022/03/01 01:47:59;;;;;;;1999.90;999.90;;;;;;;0.15;59.53;103013.50;15411940;28;20385;-62
2022/03/01 01:55:32;;;;;;;1999.90;999.90;;;;;;;0.16;60.16;103015.19;15409682;28;20043;-62
2022/03/01 02:03:06;;;;;;;1999.90;999.90;;;;;;;0.53;59.04;103029.44;15380082;28;20418;-62
2022/03/01 02:10:40;;;;;;;1999.90;999.90;;;;;;;0.39;59.45;103028.56;15421148;28;20086;-61
2022/03/01 02:18:12;;;;;;;;;;;;;;;0.27;59.44;103016.50;15406306;28;20043;-62
2022/03/01 02:25:45;;;;;;;1999.90;999.90;;;;;;;0.03;60.80;103014.34;15404326;28;20221;-61
2022/03/01 02:33:17;;;;;;;;;;;;;;;-0.15;61.73;103003.91;15388079;28;20039;-62
2022/03/01 02:40:51;;;;;;;1999.90;999.90;;;;;;;-0.21;61.95;102996.50;15400244;28;20021;-61
2022/03/01 02:48:22;;;;;;;;;;;;;;;-0.03;61.71;102999.53;15379885;28;20126;-59
2022/03/01 02:55:56;;;;;;;1999.90;999.90;;;;;;;-0.04;61.52;102998.69;15393886;28;19923;-61
2022/03/01 03:03:28;;;;;;;1999.90;999.90;;;;;;;-0.20;61.78;102990.00;15394885;28;20046;-60
2022/03/01 03:11:02;;;;;;;1999.90;999.90;;;;;;;0.28;60.20;102999.81;15389051;28;20134;-60
2022/03/01 03:18:34;;;;;;;1999.90;999.90;;;;;;;0.12;60.04;102997.47;15391696;28;20055;-63
2022/03/01 03:26:10;;;;;;;1999.90;999.90;;;;;;;0.06;60.23;102990.03;15389934;28;20049;-60
2022/03/01 03:33:42;;;;;;;1999.90;999.90;;;;;;;-0.35;61.43;102990.13;15388134;28;20031;-62
2022/03/01 03:41:15;;;;;;;1999.90;999.90;;;;;;;0.01;60.53;102989.84;15397307;28;20066;-62
2022/03/01 03:48:48;;;;;;;;;;;;;;;-0.05;60.83;102972.28;15377413;28;20198;-60
2022/03/01 03:56:21;;;;;;;1999.90;999.90;;;;;;;-0.12;60.66;102987.03;15430828;28;20337;-61
2022/03/01 04:03:54;;;;;;;1999.90;999.90;;;;;;;0.13;60.13;102987.31;15405846;28;20042;-61
2022/03/01 04:11:27;;;;;;;1999.90;999.90;;;;;;;-0.32;60.78;102978.72;15415613;28;20055;-61
2022/03/01 04:18:59;;;;;;;;;;;;;;;-0.17;60.98;102976.69;15398962;28;20452;-61
2022/03/01 04:26:33;;;;;;;1999.90;999.90;;;;;;;-0.16;61.15;102970.13;15410847;28;19958;-60
2022/03/01 04:34:05;;;;;;;1999.90;999.90;;;;;;;-0.42;61.55;102948.09;15378592;28;20050;-61
2022/03/01 04:41:39;;;;;;;1999.90;999.90;;;;;;;-0.62;61.61;102959.00;15419258;28;20130;-60
2022/03/01 04:49:11;;;;;;;1999.90;999.90;;;;;;;-0.66;61.99;102954.97;15442368;28;20439;-61
2022/03/01 04:56:44;;;;;;;1999.90;999.90;;;;;;;-0.59;61.56;102956.69;15418143;28;20035;-60
2022/03/01 05:04:16;;;;;;;;;;;;;;;-0.44;61.15;102955.69;15378334;28;20090;-61
2022/03/01 05:11:50;;;;;;;1999.90;999.90;;;;;;;-0.42;61.20;102959.06;15369240;28;19929;-61
2022/03/01 05:19:22;;;;;;;1999.90;999.90;;;;;;;-0.46;61.31;102964.13;15396191;28;20619;-61
2022/03/01 05:26:56;;;;;;;1999.90;999.90;;;;;;;-0.19;60.48;102965.06;15403528;28;20043;-61
2022/03/01 05:34:28;;;;;;;1999.90;999.90;;;;;;;-0.42;60.46;102979.13;15431762;28;20047;-62
2022/03/01 05:42:04;;;;;;;1999.90;999.90;;;;;;;-0.26;60.06;102972.44;15411845;28;20047;-61
2022/03/01 05:49:36;;;;;;;1999.90;999.90;;;;;;;-0.37;60.35;102978.50;15401916;28;20456;-62
2022/03/01 05:57:10;;;;;;;1999.90;999.90;;;;;;;-0.59;61.68;102986.88;15417177;28;20046;-62
2022/03/01 06:04:42;;;;;;;1999.90;999.90;;;;;;;-0.75;61.73;102980.84;15390850;28;20047;-61
2022/03/01 06:12:16;;;;;;;1999.90;999.90;;;;;;;-0.52;61.46;102980.53;15383981;28;20444;-60
2022/03/01 06:19:48;;;;;;;1999.90;999.90;;;;;;;-0.11;60.10;102985.97;15388413;28;20166;-60
2022/03/01 06:27:22;;;;;;;1999.90;999.90;;;;;;;-0.16;60.55;102996.75;15378682;28;20042;-62
2022/03/01 06:34:54;;;;;;;1999.90;999.90;;;;;;;-0.14;59.76;102986.41;15378591;28;20070;-60
2022/03/01 06:42:28;;;;;;;1999.90;999.90;;;;;;;0.05;60.22;102984.75;15416592;28;20113;-59
2022/03/01 06:50:00;;;;;;;1999.90;999.90;;;;;;;0.26;59.20;102973.59;15409825;28;20050;-58
2022/03/01 06:57:33;;;;;;;1999.90;999.90;;;;;;;0.27;58.48;102978.03;15395430;28;20106;-56
2022/03/01 07:05:06;;;;;;;1999.90;999.90;;;;;;;0.51;57.77;102969.16;15422345;28;20126;-60
2022/03/01 07:12:41;;;;;;;1999.90;999.90;;;;;;;1.53;55.59;102975.97;15395674;28;20452;-63
2022/03/01 07:20:14;;;;;;;1999.90;999.90;;;;;;;2.58;51.68;102984.66;15399169;28;20130;-63
2022/03/01 07:27:50;;;;;;;1999.90;999.90;;;;;;;3.92;48.47;102996.78;15391492;28;20059;-60
2022/03/01 07:35:23;;;;;;;1999.90;999.90;;;;;;;5.04;45.55;102983.94;15395291;28;20290;-62
2022/03/01 07:42:57;;;;;;;1999.90;999.90;;;;;;;5.84;44.26;102987.91;15385642;28;20051;-62
2022/03/01 07:50:30;;;;;;;1999.90;999.90;;;;;;;5.72;44.97;102972.13;15387179;28;20110;-62
2022/03/01 07:58:03;;;;;;;1999.90;999.90;;;;;;;5.25;44.92;102974.19;15441507;28;20515;-63
2022/03/01 08:05:35;;;;;;;1999.90;999.90;;;;;;;5.50;44.40;102971.13;15435926;28;20042;-62
2022/03/01 08:13:09;;;;;;;1999.90;999.90;;;;;;;6.33;42.08;102965.03;15434719;28;20113;-62
2022/03/01 08:20:41;;;;;;;1999.90;999.90;;;;;;;8.32;39.32;102968.63;15425617;28;20050;-62
2022/03/01 08:28:15;;;;;;;1999.90;999.90;;;;;;;7.59;39.49;102971.97;15403206;28;20113;-61
2022/03/01 08:35:47;;;;;;;1999.90;999.90;;;;;;;8.17;38.70;102965.69;15416654;28;20539;-61
2022/03/01 08:43:21;;;;;;;1999.90;999.90;;;;;;;9.62;35.94;102970.13;15408189;28;20043;-61
2022/03/01 08:50:54;;;;;;;1999.90;999.90;;;;;;;9.63;36.88;102955.91;15385796;28;20330;-62
2022/03/01 08:58:27;;;;;;;1999.90;999.90;;;;;;;10.70;34.33;102945.81;15388027;28;20408;-60
2022/03/01 09:06:00;;;;;;;1999.90;999.90;;;;;;;10.80;34.13;102949.72;15416022;28;20512;-62
2022/03/01 09:13:33;;;;;;;1999.90;999.90;;;;;;;8.80;35.09;102932.59;15388670;28;20051;-62
2022/03/01 09:21:07;;;;;;;1999.90;999.90;;;;;;;10.22;34.11;102929.63;15397322;28;20051;-62
2022/03/01 09:28:40;;;;;;;1999.90;999.90;;;;;;;10.72;32.17;102927.94;15377836;28;20065;-62
2022/03/01 09:36:14;;;;;;;1999.90;999.90;;;;;;;11.64;31.13;102928.53;15384670;28;20520;-61
2022/03/01 09:43:50;;;;;;;1999.90;999.90;;;;;;;10.92;31.56;102909.19;15418054;28;20289;-62
2022/03/01 09:51:25;;;;;;;1999.90;999.90;;;;;;;11.00;30.75;102907.78;15418726;28;20411;-61
2022/03/01 09:59:01;;;;;;;1999.90;999.90;;;;;;;12.03;29.82;102898.69;15379301;28;20119;-62
2022/03/01 10:06:40;;;;;;;1999.90;999.90;;;;;;;12.85;29.07;102887.63;15424385;28;20043;-61
2022/03/01 10:14:14;;;;;;;1999.90;999.90;;;;;;;11.90;29.29;102879.75;15390232;28;20055;-62
2022/03/01 10:21:48;;;;;;;1999.90;999.90;;;;;;;11.82;29.24;102869.16;15391421;28;20050;-60
2022/03/01 10:29:27;;;;;;;1999.90;999.90;;;;;;;13.77;26.82;102864.91;15386501;28;20094;-61
2022/03/01 10:36:59;;;;;;;1999.90;999.90;;;;;;;14.56;25.79;102848.19;15423387;28;20109;-61
2022/03/01 10:44:33;;;;;;;1999.90;999.90;;;;;;;13.04;26.63;102842.88;15393155;28;20059;-60
2022/03/01 10:52:09;;;;;;;1999.90;999.90;;;;;;;14.71;26.08;102838.66;15405557;28;20049;-61
2022/03/01 10:59:42;;;;;;;1999.90;999.90;;;;;;;15.20;25.20;102831.47;15388550;28;20078;-60
2022/03/01 11:07:15;;;;;;;1999.90;999.90;;;;;;;14.97;24.35;102828.56;15399651;28;20512;-61
2022/03/01 11:15:02;;;;;;;1999.90;999.90;;;;;;;16.02;23.55;102817.25;15395000;28;20109;-61
2022/03/01 11:22:41;;;;;;;1999.90;999.90;;;;;;;17.24;21.80;102799.81;15400075;28;20046;-61
2022/03/01 11:30:17;;;;;;;1999.90;999.90;;;;;;;15.55;23.82;102798.94;15423873;28;20082;-62
2022/03/01 11:38:00;;;;;;;1999.90;999.90;;;;;;;15.85;23.66;102784.16;15404118;28;20044;-60
2022/03/01 11:45:35;;;;;;;1999.90;999.90;;;;;;;15.70;22.84;102767.63;15402346;28;20105;-60
2022/03/01 11:53:08;;;;;;;1999.90;999.90;;;;;;;16.60;22.26;102756.28;15416201;28;20121;-62
2022/03/01 12:00:43;;;;;;;1999.90;999.90;;;;;;;17.01;23.00;102753.97;15392174;28;20106;-60
2022/03/01 12:08:16;;;;;;;1999.90;999.90;;;;;;;16.34;23.58;102748.53;15391606;28;20042;-58
2022/03/01 12:15:57;;;;;;;1999.90;999.90;;;;;;;17.10;22.22;102737.06;15401155;28;20043;-60
2022/03/01 12:23:32;;;;;;;1999.90;999.90;;;;;;;17.21;21.96;102738.41;15429347;28;20134;-61
2022/03/01 12:31:11;;;;;;;1999.90;999.90;;;;;;;16.18;23.27;102738.84;15430720;28;20098;-62
2022/03/01 12:38:52;;;;;;;1999.90;999.90;;;;;;;17.05;21.94;102728.75;15430758;28;20046;-64
2022/03/01 12:46:28;;;;;;;1999.90;999.90;;;;;;;18.69;20.25;102727.75;15430112;28;20485;-61
2022/03/01 12:54:02;;;;;;;1999.90;999.90;;;;;;;19.86;19.80;102723.09;15430240;28;20461;-63
2022/03/01 13:01:36;;;;;;;1999.90;999.90;;;;;;;21.30;18.07;102717.09;15412488;28;20077;-61
2022/03/01 13:09:09;;;;;;;1999.90;999.90;;;;;;;19.38;18.90;102713.13;15429867;28;20492;-62
2022/03/01 13:16:46;;;;;;;1999.90;999.90;;;;;;;17.64;20.23;102698.09;15429905;28;20047;-62
2022/03/01 13:24:23;;;;;;;1999.90;999.90;;;;;;;23.47;16.30;102704.94;15429437;28;20035;-63
2022/03/01 13:32:05;;;;;;;1999.90;999.90;;;;;;;23.80;16.01;102695.88;15429109;28;20275;-63
2022/03/01 13:39:39;;;;;;;1999.90;999.90;;;;;;;17.63;20.05;102689.94;15430069;28;20075;-64
2022/03/01 13:47:14;;;;;;;1999.90;999.90;;;;;;;14.00;24.39;102674.25;15428536;28;20440;-63
2022/03/01 13:54:50;;;;;;;1999.90;999.90;;;;;;;13.18;26.54;102660.75;15429409;28;20089;-61
2022/03/01 14:02:23;;;;;;;1999.90;999.90;;;;;;;12.28;26.77;102633.66;15430018;28;20050;-63
2022/03/01 14:09:56;;;;;;;1999.90;999.90;;;;;;;11.25;28.04;102632.97;15429832;28;20046;-62
2022/03/01 14:17:30;;;;;;;1999.90;999.90;;;;;;;11.89;27.24;102625.47;15403867;28;20078;-63
2022/03/01 14:25:03;;;;;;;1999.90;999.90;;;;;;;11.67;27.54;102623.97;15409783;28;20066;-62
2022/03/01 14:32:37;;;;;;;1999.90;999.90;;;;;;;12.02;26.91;102614.38;15427546;28;20102;-62
2022/03/01 14:40:11;;;;;;;1999.90;999.90;;;;;;;11.02;27.63;102612.19;15424600;28;20451;-61
2022/03/01 14:47:44;;;;;;;1999.90;999.90;;;;;;;10.77;27.80;102610.41;15419965;28;20035;-60
2022/03/01 14:55:17;;;;;;;1999.90;999.90;;;;;;;11.19;28.01;102597.84;15404321;28;20047;-58
2022/03/01 15:02:51;;;;;;;;;;;;;;;10.78;29.21;102594.50;15400572;28;20047;-62
2022/03/01 15:10:24;;;;;;;1999.90;999.90;;;;;;;10.70;28.94;102581.97;15393856;28;20258;-62
2022/03/01 15:17:58;;;;;;;1999.90;999.90;;;;;;;10.62;29.29;102571.41;15373417;28;20069;-62
2022/03/01 15:25:33;;;;;;;1999.90;999.90;;;;;;;10.21;30.35;102560.41;15410742;28;20046;-61
2022/03/01 15:33:06;;;;;;;1999.90;999.90;;;;;;;10.54;30.18;102561.69;15409701;28;20043;-61
2022/03/01 15:40:39;;;;;;;1999.90;999.90;;;;;;;10.31;29.57;102562.34;15423505;28;20055;-60
2022/03/01 15:48:12;;;;;;;1999.90;999.90;;;;;;;10.60;30.21;102559.69;15393465;28;20042;-63
2022/03/01 15:55:47;;;;;;;1999.90;999.90;;;;;;;10.30;30.62;102560.69;15433083;28;20073;-60
2022/03/01 16:03:20;;;;;;;1999.90;999.90;;;;;;;10.26;30.91;102548.44;15416784;28;20065;-59
2022/03/01 16:10:53;;;;;;;1999.90;999.90;;;;;;;10.24;31.52;102562.69;15388109;28;20047;-61
2022/03/01 16:18:26;;;;;;;1999.90;999.90;;;;;;;9.35;33.61;102560.66;15406072;28;20264;-60
2022/03/01 16:26:00;;;;;;;;;;;;;;;9.16;34.54;102544.50;15386022;28;20293;-60
2022/03/01 16:33:33;;;;;;;1999.90;999.90;;;;;;;8.82;35.16;102551.75;15411103;28;20353;-59
2022/03/01 16:41:05;;;;;;;1999.90;999.90;;;;;;;8.78;35.87;102539.50;15412788;28;20121;-58
2022/03/01 16:48:42;;;;;;;1999.90;999.90;;;;;;;9.03;34.84;102553.44;15385256;28;20054;-58
2022/03/01 16:56:14;;;;;;;1999.90;999.90;;;;;;;8.75;37.52;102553.97;15429759;28;20153;-59
2022/03/01 17:03:47;;;;;;;1999.90;999.90;;;;;;;8.24;39.03;102548.28;15389012;28;20070;-59
2022/03/01 17:11:20;;;;;;;1999.90;999.90;;;;;;;7.66;40.82;102547.44;15428445;28;20049;-59
2022/03/01 17:18:53;;;;;;;1999.90;999.90;;;;;;;7.45;41.35;102544.53;15404036;28;20039;-59
2022/03/01 17:26:26;;;;;;;1999.90;999.90;;;;;;;7.08;39.93;102538.13;15419973;28;20110;-62
2022/03/01 17:33:59;;;;;;;1999.90;999.90;;;;;;;6.93;40.39;102534.13;15370716;28;20054;-62
2022/03/01 17:41:31;;;;;;;1999.90;999.90;;;;;;;6.53;41.03;102539.31;15370344;28;20043;-60
2022/03/01 17:49:05;;;;;;;1999.90;999.90;;;;;;;6.53;42.08;102548.47;15366739;28;20130;-62
2022/03/01 17:56:38;;;;;;;1999.90;999.90;;;;;;;6.19;44.35;102550.59;15413323;28;20053;-61
2022/03/01 18:04:13;;;;;;;1999.90;999.90;;;;;;;5.87;45.50;102555.13;15416272;28;20047;-64
2022/03/01 18:11:48;;;;;;;1999.90;999.90;;;;;;;5.56;46.42;102538.09;15391032;28;20060;-62
2022/03/01 18:19:23;;;;;;;1999.90;999.90;;;;;;;5.34;47.26;102539.97;15401551;28;20066;-59
2022/03/01 18:26:55;;;;;;;1999.90;999.90;;;;;;;5.16;46.70;102538.31;15436648;28;20110;-61
2022/03/01 18:34:29;;;;;;;1999.90;999.90;;;;;;;4.98;46.96;102544.09;15366695;28;20078;-59
2022/03/01 18:42:01;;;;;;;1999.90;999.90;;;;;;;4.89;46.95;102543.66;15421362;28;20126;-60
2022/03/01 18:49:36;;;;;;;1999.90;999.90;;;;;;;4.68;47.56;102522.28;15383776;28;20051;-60
2022/03/01 18:57:08;;;;;;;1999.90;999.90;;;;;;;4.60;47.93;102537.38;15405523;28;20452;-60
2022/03/01 19:04:41;;;;;;;1999.90;999.90;;;;;;;4.59;47.92;102525.47;15373902;28;20073;-58
2022/03/01 19:12:14;;;;;;;1999.90;999.90;;;;;;;4.43;49.84;102515.22;15418525;28;20043;-61
2022/03/01 19:19:47;;;;;;;1999.90;999.90;;;;;;;4.47;49.46;102518.31;15426318;28;20047;-61
2022/03/01 19:27:19;;;;;;;1999.90;999.90;;;;;;;4.08;52.51;102518.13;15421110;28;20058;-60
2022/03/01 19:34:53;;;;;;;1999.90;999.90;;;;;;;4.19;51.76;102520.00;15435458;28;20053;-66
2022/03/01 19:42:25;;;;;;;1999.90;999.90;;;;;;;4.14;51.50;102517.13;15411914;28;20047;-62
2022/03/01 19:49:59;;;;;;;1999.90;999.90;;;;;;;4.11;52.16;102516.81;15395529;28;20473;-62
2022/03/01 19:57:31;;;;;;;1999.90;999.90;;;;;;;4.07;51.88;102524.75;15410624;28;20047;-59
2022/03/01 20:05:06;;;;;;;1999.90;999.90;;;;;;;3.89;52.61;102527.69;15417955;28;20524;-60
2022/03/01 20:12:38;;;;;;;1999.90;999.90;;;;;;;3.84;52.67;102511.81;15409941;28;20323;-63
2022/03/01 20:20:13;;;;;;;1999.90;999.90;;;;;;;3.86;52.04;102523.50;15431142;28;20047;-63
2022/03/01 20:27:47;;;;;;;1999.90;999.90;;;;;;;3.79;52.29;102513.66;15385856;28;20146;-63
2022/03/01 20:35:21;;;;;;;1999.90;999.90;;;;;;;3.68;52.81;102507.91;15382969;28;20063;-62
2022/03/01 20:42:55;;;;;;;1999.90;999.90;;;;;;;3.53;53.49;102501.22;15376765;28;20416;-58
2022/03/01 20:50:36;;;;;;;1999.90;999.90;;;;;;;3.25;54.90;102485.44;15438321;28;20098;-60
2022/03/01 20:58:08;;;;;;;1999.90;999.90;;;;;;;3.23;54.48;102480.16;15432199;28;20039;-59
2022/03/01 21:05:42;;;;;;;1999.90;999.90;;;;;;;2.75;55.73;102472.09;15390624;28;20047;-66
2022/03/01 21:13:14;;;;;;;1999.90;999.90;;;;;;;3.20;54.73;102466.81;15408242;28;20082;-59
2022/03/01 21:20:48;;;;;;;1999.90;999.90;;;;;;;3.28;54.37;102471.97;15426316;28;20077;-62
2022/03/01 21:28:20;;;;;;;1999.90;999.90;;;;;;;3.19;54.93;102460.47;15429575;28;20078;-56
2022/03/01 21:35:53;;;;;;;1999.90;999.90;;;;;;;3.02;55.62;102466.94;15389352;28;20054;-57
2022/03/01 21:43:25;;;;;;;;;;;;;;;2.94;56.01;102464.56;15412234;28;20074;-62
2022/03/01 21:50:59;;;;;;;1999.90;999.90;;;;;;;2.66;56.75;102465.25;15419804;28;19966;-61
2022/03/01 21:58:31;;;;;;;;;;;;;;;2.71;56.65;102469.00;15402307;28;20522;-60
2022/03/01 22:06:05;;;;;;;1999.90;999.90;;;;;;;2.69;56.24;102467.53;15404325;28;19925;-59
2022/03/01 22:13:38;;;;;;;;;;;;;;;2.55;57.50;102465.00;15412951;28;20050;-60
2022/03/01 22:21:11;;;;;;;1999.90;999.90;;;;;;;2.40;58.60;102452.72;15383179;28;20545;-59
2022/03/01 22:28:43;;;;;;;1999.90;999.90;;;;;;;2.21;58.07;102460.25;15385833;28;20109;-59
2022/03/01 22:36:17;;;;;;;1999.90;999.90;;;;;;;2.23;58.43;102458.09;15424204;28;20101;-61
2022/03/01 22:43:49;;;;;;;1999.90;999.90;;;;;;;2.18;57.65;102466.22;15413051;28;20043;-61
2022/03/01 22:51:23;;;;;;;1999.90;999.90;;;;;;;2.01;58.18;102466.88;15399327;28;20429;-61
2022/03/01 22:58:55;;;;;;;1999.90;999.90;;;;;;;1.91;58.03;102463.00;15385329;28;20049;-62
2022/03/01 23:06:31;;;;;;;1999.90;999.90;;;;;;;1.86;58.28;102455.44;15382560;28;20472;-63
2022/03/01 23:14:03;;;;;;;1999.90;999.90;;;;;;;1.77;58.64;102447.72;15415437;28;20451;-62
2022/03/01 23:21:36;;;;;;;1999.90;999.90;;;;;;;1.67;58.28;102451.91;15383696;28;20039;-62
2022/03/01 23:29:08;;;;;;;1999.90;999.90;;;;;;;1.52;58.44;102447.84;15388928;28;20047;-63
2022/03/01 23:36:42;;;;;;;1999.90;999.90;;;;;;;1.52;59.98;102440.44;15406038;28;20062;-61
2022/03/01 23:44:14;;;;;;;1999.90;999.90;;;;;;;1.41;60.09;102436.53;15395667;28;20049;-62
2022/03/01 23:51:48;;;;;;;1999.90;999.90;;;;;;;1.32;60.20;102426.91;15390959;28;20356;-62
2022/03/01 23:59:22;;;;;;;;;;;;;;;1.34;59.60;102424.78;15433190;28;20043;-63
